Time;durP1;ratioP1;P1;durP2;ratioP2;P2;SDS_P1;SDS_P2;PMS_P1;PMS_P2;Temp;Humidity;BMP_temperature;BMP_pressure;BME280_temperature;BME280_humidity;BME280_pressure;Samples;Min_cycle;Max_cycle;Signal;HPM_P1;HPM_P2
2022/01/01 00:00:28;;;;;;;26.03;17.60;;;;;;;9.91;87.97;97706.00;5115750;28;20184;-65
2022/01/01 00:02:55;;;;;;;30.17;22.60;;;;;;;9.78;89.12;97713.84;5115184;28;20196;-69
2022/01/01 00:05:21;;;;;;;33.97;25.43;;;;;;;9.73;89.11;97724.09;5116075;28;20647;-66
2022/01/01 00:07:46;;;;;;;32.27;22.23;;;;;;;9.65;90.19;97724.25;5115908;28;20180;-66
2022/01/01 00:10:11;;;;;;;15.27;11.47;;;;;;;9.57;90.03;97727.88;5115986;28;20576;-66
2022/01/01 00:12:41;;;;;;;21.47;15.53;;;;;;;9.49;90.60;97724.63;5115743;28;20180;-65
2022/01/01 00:15:06;;;;;;;18.13;13.67;;;;;;;9.67;90.37;97729.31;5115008;28;20585;-70
2022/01/01 00:17:32;;;;;;;34.27;24.47;;;;;;;9.85;89.05;97719.09;5115774;28;20184;-65
2022/01/01 00:19:57;;;;;;;27.60;18.93;;;;;;;9.96;88.19;97719.31;5115531;28;20690;-65
2022/01/01 00:22:23;;;;;;;31.50;21.80;;;;;;;10.01;88.19;97727.38;5115654;28;20180;-65
2022/01/01 00:24:48;;;;;;;33.70;26.07;;;;;;;10.07;88.13;97723.16;5115396;28;20210;-65
2022/01/01 00:27:14;;;;;;;47.67;37.37;;;;;;;10.26;87.29;97725.00;5115603;28;20659;-65
2022/01/01 00:29:39;;;;;;;14.87;11.83;;;;;;;10.37;86.86;97731.44;5114938;28;20176;-65
2022/01/01 00:32:05;;;;;;;30.43;23.07;;;;;;;10.50;86.37;97728.03;5115351;28;20176;-65
2022/01/01 00:34:30;;;;;;;13.93;10.30;;;;;;;10.63;85.74;97725.41;5096976;28;20204;-65
2022/01/01 00:36:56;;;;;;;6.57;5.87;;;;;;;10.52;85.34;97731.25;5115451;28;20218;-65
2022/01/01 00:39:21;;;;;;;20.00;16.50;;;;;;;10.52;86.60;97733.88;5115157;28;20259;-65
2022/01/01 00:41:47;;;;;;;19.10;17.07;;;;;;;10.57;86.00;97736.69;5115519;28;20573;-65
2022/01/01 00:44:12;;;;;;;16.07;11.60;;;;;;;10.53;85.55;97732.88;5115310;28;20183;-65
2022/01/01 00:46:38;;;;;;;13.43;9.53;;;;;;;10.49;85.78;97724.59;5114847;28;20211;-64
2022/01/01 00:49:03;;;;;;;13.73;8.10;;;;;;;10.51;85.55;97732.25;5114631;28;20668;-65
2022/01/01 00:51:29;;;;;;;24.77;18.27;;;;;;;10.52;86.00;97731.25;5115285;28;20604;-64
2022/01/01 00:53:54;;;;;;;8.87;6.00;;;;;;;10.50;85.79;97728.81;5115129;28;20335;-65
2022/01/01 00:56:20;;;;;;;14.87;10.27;;;;;;;10.43;85.67;97741.94;5098464;28;20684;-65
2022/01/01 00:58:45;;;;;;;8.60;6.83;;;;;;;10.21;86.57;97743.13;5114875;28;20388;-64
2022/01/01 01:01:11;;;;;;;21.70;16.10;;;;;;;10.08;87.07;97745.72;5114427;28;20188;-65
2022/01/01 01:03:36;;;;;;;14.20;10.47;;;;;;;10.18;87.01;97740.91;5114784;28;20253;-64
2022/01/01 01:06:02;;;;;;;17.67;13.80;;;;;;;10.06;88.23;97741.69;5115246;28;20636;-65
2022/01/01 01:08:28;;;;;;;40.87;28.63;;;;;;;10.00;89.24;97744.09;5114746;28;20192;-65
2022/01/01 01:10:56;;;;;;;18.10;10.53;;;;;;;10.18;88.69;97738.31;5114804;28;20645;-65
2022/01/01 01:13:22;;;;;;;20.20;11.40;;;;;;;10.22;87.84;97736.88;5114589;28;20203;-65
2022/01/01 01:15:48;;;;;;;220.97;106.10;;;;;;;10.51;87.08;97740.13;5114458;28;20183;-64
2022/01/01 01:18:14;;;;;;;11.97;8.07;;;;;;;10.36;87.49;97743.75;5114561;28;20180;-66
2022/01/01 01:20:40;;;;;;;32.20;14.73;;;;;;;10.21;88.70;97750.19;5114676;28;20628;-66
2022/01/01 01:23:05;;;;;;;8.87;7.00;;;;;;;10.23;89.26;97746.38;5114577;28;20184;-66
2022/01/01 01:25:38;;;;;;;5.53;4.20;;;;;;;10.34;89.06;97750.19;5096157;28;20175;-66
2022/01/01 01:28:07;;;;;;;5.07;4.50;;;;;;;10.41;88.11;97746.59;5114515;28;20246;-66
2022/01/01 01:30:33;;;;;;;5.53;4.63;;;;;;;10.45;87.51;97751.41;5114670;28;20652;-66
2022/01/01 01:32:59;;;;;;;5.63;4.50;;;;;;;10.48;87.13;97756.25;5114428;28;20287;-66
2022/01/01 01:35:24;;;;;;;4.90;4.33;;;;;;;10.42;87.18;97756.03;5114372;28;20275;-66
2022/01/01 01:37:49;;;;;;;4.90;4.40;;;;;;;10.55;87.56;97759.66;5113715;28;20223;-66
2022/01/01 01:40:15;;;;;;;4.73;4.07;;;;;;;10.55;86.93;97757.84;5114618;28;20616;-66
2022/01/01 01:42:43;;;;;;;4.67;4.17;;;;;;;10.55;87.17;97757.84;5114172;28;20296;-66
2022/01/01 01:45:14;;;;;;;4.97;4.40;;;;;;;10.64;86.98;97754.03;5114416;28;20262;-66
2022/01/01 01:47:40;;;;;;;4.83;3.77;;;;;;;10.60;86.97;97750.19;5114295;28;20171;-66
2022/01/01 01:50:08;;;;;;;6.30;4.07;;;;;;;10.50;87.64;97754.22;5113824;28;20241;-66
2022/01/01 01:52:36;;;;;;;4.13;3.70;;;;;;;10.54;87.80;97752.81;5114165;28;20215;-66
2022/01/01 01:55:05;;;;;;;4.80;4.27;;;;;;;10.57;87.60;97749.81;5114046;28;20183;-66
2022/01/01 01:57:33;;;;;;;5.73;3.90;;;;;;;10.55;87.40;97754.44;5114171;28;20207;-66
2022/01/01 01:59:59;;;;;;;4.50;4.10;;;;;;;10.59;87.47;97751.19;5096288;28;20659;-66
2022/01/01 02:02:24;;;;;;;4.40;3.70;;;;;;;10.71;87.49;97756.63;5112909;28;20184;-67
2022/01/01 02:04:50;;;;;;;4.53;4.13;;;;;;;10.51;88.07;97747.97;5113782;28;20230;-68
2022/01/01 02:07:15;;;;;;;5.10;4.07;;;;;;;10.32;89.35;97757.44;5114166;28;20268;-66
2022/01/01 02:09:41;;;;;;;4.97;4.40;;;;;;;10.37;88.70;97758.47;5113646;28;20191;-65
2022/01/01 02:12:08;;;;;;;4.53;3.93;;;;;;;10.29;89.87;97755.25;5113811;28;20182;-64
2022/01/01 02:17:25;;;;;;;5.10;4.50;;;;;;;10.49;88.23;97760.47;5113624;28;20330;-65
2022/01/01 02:19:59;;;;;;;4.57;3.93;;;;;;;10.32;88.87;97753.00;5113414;28;20191;-65
2022/01/01 02:22:26;;;;;;;4.60;4.07;;;;;;;10.20;89.13;97759.03;5113497;28;20188;-66
2022/01/01 02:24:51;;;;;;;4.53;4.13;;;;;;;10.12;89.90;97753.97;5113423;28;20180;-67
2022/01/01 02:27:17;;;;;;;4.83;4.30;;;;;;;10.01;90.55;97760.63;5113463;28;20188;-66
2022/01/01 02:29:43;;;;;;;6.53;4.60;;;;;;;9.93;91.00;97760.78;5113271;28;20223;-66
2022/01/01 02:32:11;;;;;;;5.27;4.50;;;;;;;9.88;91.59;97768.44;5113038;28;20192;-64
2022/01/01 02:34:37;;;;;;;8.13;5.10;;;;;;;10.19;89.60;97762.69;5113622;28;20192;-64
2022/01/01 02:37:03;;;;;;;6.83;5.10;;;;;;;10.24;89.02;97765.50;5113376;28;20621;-64
2022/01/01 02:39:28;;;;;;;6.77;5.10;;;;;;;10.04;89.83;97762.81;5112899;28;20231;-66
2022/01/01 02:41:55;;;;;;;7.00;5.27;;;;;;;10.13;89.93;97766.06;5113585;28;20191;-67
2022/01/01 02:44:22;;;;;;;5.70;4.80;;;;;;;10.12;89.93;97764.47;5112690;28;20191;-67
2022/01/01 02:46:47;;;;;;;6.90;4.70;;;;;;;10.26;89.16;97768.72;5113209;28;20171;-64
2022/01/01 02:49:12;;;;;;;7.53;5.13;;;;;;;10.05;90.22;97769.69;5112847;28;20188;-64
2022/01/01 02:51:38;;;;;;;5.93;4.60;;;;;;;10.00;91.02;97759.00;5078045;28;20211;-64
2022/01/01 02:54:03;;;;;;;7.00;5.90;;;;;;;10.03;90.79;97769.88;5113263;28;20675;-64
2022/01/01 02:56:29;;;;;;;9.03;5.67;;;;;;;10.05;90.83;97774.09;5112924;28;20188;-65
2022/01/01 02:58:54;;;;;;;8.37;6.70;;;;;;;10.21;89.95;97771.94;5113094;28;20208;-64
2022/01/01 03:01:20;;;;;;;8.53;6.67;;;;;;;9.88;91.77;97774.47;5112711;28;20523;-64
2022/01/01 03:03:46;;;;;;;8.17;6.67;;;;;;;9.71;92.80;97767.16;5112161;28;20183;-67
2022/01/01 03:06:19;;;;;;;8.97;7.23;;;;;;;9.75;93.01;97765.78;5112944;28;20698;-65
2022/01/01 03:08:44;;;;;;;8.70;6.30;;;;;;;9.80;93.71;97760.78;5112761;28;20692;-65
2022/01/01 03:11:09;;;;;;;8.57;6.20;;;;;;;9.79;93.37;97759.97;5112610;28;20274;-69
2022/01/01 03:13:35;;;;;;;10.13;6.77;;;;;;;9.96;92.97;97750.72;5113125;28;20559;-66
2022/01/01 03:16:00;;;;;;;12.90;7.73;;;;;;;10.00;92.21;97748.50;5112750;28;20187;-65
2022/01/01 03:18:25;;;;;;;9.73;7.83;;;;;;;9.96;93.23;97755.16;5112666;28;20255;-64
2022/01/01 03:20:51;;;;;;;10.77;7.50;;;;;;;9.95;92.83;97756.16;5112710;28;20620;-65
2022/01/01 03:23:16;;;;;;;9.17;8.00;;;;;;;9.91;92.81;97760.19;5113032;28;20584;-65
2022/01/01 03:25:41;;;;;;;9.00;7.10;;;;;;;9.96;92.69;97753.34;5112954;28;20241;-65
2022/01/01 03:28:07;;;;;;;9.67;6.90;;;;;;;9.89;92.57;97765.63;5094364;28;20180;-65
2022/01/01 03:30:33;;;;;;;9.73;7.17;;;;;;;9.89;92.64;97759.56;5112316;28;20267;-65
2022/01/01 03:32:58;;;;;;;8.27;6.80;;;;;;;9.89;92.20;97760.38;5113144;28;20203;-65
2022/01/01 03:35:24;;;;;;;11.43;8.10;;;;;;;9.84;92.94;97759.34;5112551;28;20214;-65
2022/01/01 03:37:50;;;;;;;9.00;7.53;;;;;;;9.96;91.63;97753.34;5112273;28;20232;-65
2022/01/01 03:40:15;;;;;;;12.87;7.83;;;;;;;10.01;91.23;97750.94;5112559;28;20175;-65
2022/01/01 03:42:41;;;;;;;11.00;8.23;;;;;;;10.01;91.44;97750.13;5112356;28;20644;-66
2022/01/01 03:45:07;;;;;;;9.53;6.87;;;;;;;9.97;91.82;97743.69;5112137;28;20544;-65
2022/01/01 03:47:33;;;;;;;10.97;7.27;;;;;;;9.87;91.77;97740.63;5112323;28;20225;-65
2022/01/01 03:49:59;;;;;;;10.40;7.23;;;;;;;10.10;91.13;97740.25;5112288;28;20277;-65
2022/01/01 03:52:24;;;;;;;9.00;7.40;;;;;;;9.94;91.34;97751.94;5116606;28;20192;-65
2022/01/01 03:54:50;;;;;;;11.27;8.90;;;;;;;9.87;91.08;97754.53;5115477;28;20204;-65
2022/01/01 03:57:16;;;;;;;10.13;8.73;;;;;;;9.85;91.34;97750.50;5116401;28;20175;-66
2022/01/01 03:59:41;;;;;;;9.07;7.33;;;;;;;9.78;91.54;97755.72;5116028;28;20266;-65
2022/01/01 04:02:07;;;;;;;11.13;8.10;;;;;;;9.64;92.30;97766.34;5115140;28;20184;-66
2022/01/01 04:04:32;;;;;;;10.03;7.70;;;;;;;9.60;92.98;97765.91;5115329;28;20178;-65
2022/01/01 04:06:57;;;;;;;9.13;6.87;;;;;;;9.65;92.21;97767.94;5116507;28;20211;-65
2022/01/01 04:09:23;;;;;;;8.33;6.13;;;;;;;9.75;91.76;97758.72;5116179;28;20252;-69
2022/01/01 04:11:49;;;;;;;10.33;6.63;;;;;;;9.87;91.36;97762.38;5115778;28;20218;-65
2022/01/01 04:14:16;;;;;;;9.37;6.30;;;;;;;9.94;90.79;97754.53;5115933;28;20617;-65
2022/01/01 04:16:42;;;;;;;10.60;6.57;;;;;;;9.78;91.42;97762.75;5116383;28;20184;-65
2022/01/01 04:19:08;;;;;;;6.57;5.10;;;;;;;9.65;92.37;97768.75;5115892;28;20176;-65
2022/01/01 04:21:34;;;;;;;6.90;5.27;;;;;;;9.73;92.05;97765.97;5116001;28;20180;-65
2022/01/01 04:23:59;;;;;;;5.53;4.90;;;;;;;9.86;90.92;97760.75;5115870;28;20180;-65
2022/01/01 04:26:25;;;;;;;6.83;5.23;;;;;;;9.76;91.57;97760.34;5115535;28;20194;-68
2022/01/01 04:28:51;;;;;;;6.20;5.20;;;;;;;9.72;91.72;97759.13;5115798;28;20552;-65
2022/01/01 04:31:16;;;;;;;8.70;5.40;;;;;;;9.81;90.85;97757.13;5115227;28;20545;-65
2022/01/01 04:33:43;;;;;;;7.20;5.10;;;;;;;9.87;89.59;97741.44;5115317;28;20291;-65
2022/01/01 04:36:08;;;;;;;6.43;4.73;;;;;;;9.86;89.14;97765.22;5115862;28;20188;-65
2022/01/01 04:41:13;;;;;;;4.47;4.07;;;;;;;9.79;88.98;97752.09;5115249;28;20524;-65
2022/01/01 04:43:40;;;;;;;5.67;4.47;;;;;;;9.92;88.75;97735.59;5115791;28;20179;-65
2022/01/01 04:46:06;;;;;;;5.23;4.40;;;;;;;9.82;88.41;97737.78;5115579;28;20187;-65
2022/01/01 04:48:32;;;;;;;7.03;4.97;;;;;;;9.70;89.16;97740.19;5115456;28;20559;-65
2022/01/01 04:50:57;;;;;;;5.13;4.63;;;;;;;9.59;89.46;97740.75;5115225;28;20184;-65
2022/01/01 04:53:23;;;;;;;5.20;4.53;;;;;;;9.75;88.88;97721.28;5115048;28;20225;-65
2022/01/01 04:55:49;;;;;;;4.23;3.80;;;;;;;9.62;88.72;97716.81;5115159;28;20195;-65
2022/01/01 04:58:15;;;;;;;6.17;4.20;;;;;;;9.46;89.10;97727.63;5115458;28;20648;-65
2022/01/01 05:00:41;;;;;;;5.23;4.07;;;;;;;9.58;88.28;97726.06;5114698;28;20188;-65
2022/01/01 05:03:06;;;;;;;5.03;3.80;;;;;;;9.55;87.85;97715.97;5114176;28;20535;-65
2022/01/01 05:05:32;;;;;;;6.43;3.70;;;;;;;9.28;89.64;97722.13;5115455;28;20180;-65
2022/01/01 05:07:57;;;;;;;5.77;4.77;;;;;;;9.46;88.91;97725.03;5096498;28;20180;-65
2022/01/01 05:10:24;;;;;;;6.33;5.47;;;;;;;9.13;91.28;97730.13;5114680;28;20183;-67
2022/01/01 05:12:51;;;;;;;6.83;5.70;;;;;;;8.88;93.18;97732.38;5114595;28;20184;-67
2022/01/01 05:15:16;;;;;;;8.13;6.17;;;;;;;8.90;92.76;97724.34;5115161;28;20184;-67
2022/01/01 05:17:41;;;;;;;8.47;5.63;;;;;;;8.76;93.11;97724.25;5114949;28;20180;-67
2022/01/01 05:20:07;;;;;;;6.47;5.60;;;;;;;8.74;92.93;97712.41;5114847;28;20191;-65
2022/01/01 05:22:32;;;;;;;8.27;6.37;;;;;;;8.64;93.71;97715.34;5114359;28;20530;-65
2022/01/01 05:25:00;;;;;;;8.70;6.87;;;;;;;8.53;94.14;97721.09;5114458;28;20224;-67
2022/01/01 05:27:31;;;;;;;7.83;5.93;;;;;;;8.46;95.20;97724.66;5114458;28;20266;-67
2022/01/01 05:29:57;;;;;;;9.07;6.40;;;;;;;8.36;95.50;97726.81;5114794;28;20184;-67
2022/01/01 05:32:22;;;;;;;6.97;5.40;;;;;;;8.43;95.23;97735.47;5096073;28;20172;-67
2022/01/01 05:34:47;;;;;;;9.53;5.57;;;;;;;8.35;94.57;97728.59;5114677;28;20298;-67
2022/01/01 05:37:13;;;;;;;8.50;6.00;;;;;;;8.21;94.44;97730.25;5095650;28;20180;-67
2022/01/01 05:39:38;;;;;;;7.07;5.50;;;;;;;8.30;94.36;97730.97;5114005;28;20216;-70
2022/01/01 05:42:04;;;;;;;7.30;5.50;;;;;;;8.13;94.66;97729.59;5095897;28;20188;-65
2022/01/01 05:44:29;;;;;;;6.23;5.23;;;;;;;8.30;93.14;97736.22;5114406;28;20183;-65
2022/01/01 05:46:55;;;;;;;9.00;5.93;;;;;;;8.32;93.22;97724.56;5114470;28;20206;-65
2022/01/01 05:49:21;;;;;;;8.07;5.53;;;;;;;8.32;93.01;97732.41;5114260;28;20632;-65
2022/01/01 05:51:46;;;;;;;7.20;5.23;;;;;;;8.10;93.47;97735.19;5114326;28;20183;-67
2022/01/01 05:54:12;;;;;;;5.60;5.00;;;;;;;8.13;93.29;97742.66;5114421;28;20571;-67
2022/01/01 05:56:38;;;;;;;6.30;4.90;;;;;;;8.34;92.47;97740.06;5113687;28;20307;-68
2022/01/01 05:59:03;;;;;;;7.10;5.47;;;;;;;8.31;92.35;97736.00;5114010;28;20183;-67
2022/01/01 06:01:28;;;;;;;7.30;5.57;;;;;;;8.47;91.23;97737.53;5113734;28;20199;-67
2022/01/01 06:03:54;;;;;;;8.10;5.40;;;;;;;8.36;91.58;97745.09;5113314;28;20187;-67
2022/01/01 06:06:20;;;;;;;7.10;5.13;;;;;;;8.30;91.85;97749.25;5113878;28;20631;-66
2022/01/01 06:08:45;;;;;;;5.67;4.87;;;;;;;8.27;91.95;97753.03;5113822;28;20192;-67
2022/01/01 06:11:11;;;;;;;6.40;5.03;;;;;;;8.45;91.04;97752.59;5095351;28;20180;-68
2022/01/01 06:13:36;;;;;;;7.37;4.97;;;;;;;8.46;91.41;97767.28;5112871;28;20616;-67
2022/01/01 06:16:02;;;;;;;5.60;4.33;;;;;;;8.55;90.83;97763.53;5113365;28;20184;-67
2022/01/01 06:18:28;;;;;;;6.20;4.70;;;;;;;8.68;89.88;97768.84;5113463;28;20628;-68
2022/01/01 06:20:53;;;;;;;4.40;4.00;;;;;;;8.63;90.17;97773.84;5113116;28;20266;-65
2022/01/01 06:23:18;;;;;;;4.37;3.87;;;;;;;8.63;90.24;97776.47;5113551;28;20183;-67
2022/01/01 06:25:44;;;;;;;4.77;4.03;;;;;;;8.88;88.89;97782.06;5113606;28;20192;-65
2022/01/01 06:28:09;;;;;;;5.80;4.10;;;;;;;8.88;88.29;97786.47;5113639;28;20582;-65
2022/01/01 06:30:34;;;;;;;4.03;3.63;;;;;;;9.01;87.64;97783.94;5113179;28;20240;-67
2022/01/01 06:33:17;;;;;;;4.27;3.57;;;;;;;9.23;86.67;97784.69;5112920;28;20602;-65
2022/01/01 06:35:44;;;;;;;4.73;3.67;;;;;;;9.22;86.41;97798.75;5113514;28;20179;-65
2022/01/01 06:38:11;;;;;;;3.70;3.40;;;;;;;9.22;86.21;97799.56;5113360;28;20230;-65
2022/01/01 06:40:39;;;;;;;3.67;3.37;;;;;;;9.22;86.09;97802.19;5112748;28;20618;-65
2022/01/01 06:43:06;;;;;;;4.17;3.77;;;;;;;9.19;86.38;97799.97;5113302;28;20222;-65
2022/01/01 06:45:31;;;;;;;4.77;3.73;;;;;;;9.16;86.30;97798.53;5112324;28;20225;-65
2022/01/01 06:47:57;;;;;;;4.63;3.63;;;;;;;9.14;86.35;97800.50;5113441;28;20188;-65
2022/01/01 06:50:23;;;;;;;4.20;3.80;;;;;;;9.23;85.56;97805.59;5113080;28;20184;-65
2022/01/01 06:52:48;;;;;;;4.40;3.53;;;;;;;9.29;85.80;97805.66;5112647;28;20222;-66
2022/01/01 06:55:14;;;;;;;3.87;3.20;;;;;;;9.29;85.88;97797.00;5113100;28;20204;-65
2022/01/01 06:57:40;;;;;;;4.90;3.10;;;;;;;9.24;85.68;97794.97;5113349;28;20561;-65
2022/01/01 07:00:06;;;;;;;4.83;3.17;;;;;;;9.28;85.58;97792.75;5113182;28;20187;-68
2022/01/01 07:02:37;;;;;;;4.93;3.60;;;;;;;9.33;85.02;97795.59;5112507;28;20191;-69
2022/01/01 07:05:03;;;;;;;5.80;3.97;;;;;;;9.39;84.70;97800.88;5113011;28;20573;-65
2022/01/01 07:07:28;;;;;;;4.17;3.20;;;;;;;9.32;84.48;97799.22;5112585;28;20278;-65
2022/01/01 07:09:53;;;;;;;3.40;3.13;;;;;;;9.39;84.47;97790.41;5112693;28;20233;-65
2022/01/01 07:12:19;;;;;;;4.23;3.40;;;;;;;9.37;84.31;97799.44;5112873;28;20192;-66
2022/01/01 07:14:44;;;;;;;4.10;3.70;;;;;;;9.31;84.62;97793.16;5113134;28;20664;-65
2022/01/01 07:17:09;;;;;;;6.13;3.90;;;;;;;9.34;84.91;97795.41;5112741;28;20541;-65
2022/01/01 07:19:35;;;;;;;4.30;3.53;;;;;;;9.31;84.67;97794.97;5113305;28;20271;-65
2022/01/01 07:22:00;;;;;;;4.47;3.40;;;;;;;9.39;84.73;97787.78;5112774;28;20265;-66
2022/01/01 07:24:26;;;;;;;4.60;3.87;;;;;;;9.25;85.00;97790.53;5113795;28;20196;-66
2022/01/01 07:26:52;;;;;;;6.80;3.90;;;;;;;9.24;85.20;97794.16;5117334;28;20176;-65
2022/01/01 07:29:17;;;;;;;4.37;3.50;;;;;;;9.33;84.43;97795.59;5116813;28;20206;-65
2022/01/01 07:31:42;;;;;;;4.20;3.60;;;;;;;9.06;86.68;97800.69;5117232;28;20263;-65
2022/01/01 07:34:08;;;;;;;4.47;3.80;;;;;;;9.26;85.51;97799.97;5116798;28;20207;-65
2022/01/01 07:36:33;;;;;;;4.03;3.40;;;;;;;9.34;85.41;97800.66;5098121;28;20203;-65
2022/01/01 07:38:58;;;;;;;5.40;4.10;;;;;;;9.55;83.91;97792.69;5116791;28;20223;-65
2022/01/01 07:41:24;;;;;;;4.90;3.63;;;;;;;9.81;83.12;97791.16;5116915;28;20263;-65
2022/01/01 07:43:49;;;;;;;4.67;3.67;;;;;;;9.82;81.63;97790.16;5116802;28;20190;-65
2022/01/01 07:46:14;;;;;;;3.73;3.20;;;;;;;9.99;81.10;97802.69;5116536;28;20215;-70
2022/01/01 07:48:40;;;;;;;4.20;3.43;;;;;;;9.84;82.34;97799.44;5116582;28;20184;-69
2022/01/01 07:51:05;;;;;;;;;;;;;;;10.79;86.68;97796.59;5116678;28;20058;-72
2022/01/01 07:53:30;;;;;;;;;;;;;;;11.34;77.91;97791.03;5117027;28;20014;-64
2022/01/01 07:55:56;;;;;;;;;;;;;;;11.19;74.75;97789.47;5117074;28;19954;-64
2022/01/01 07:58:21;;;;;;;4.20;3.80;;;;;;;10.79;76.00;97788.72;5114993;28;20397;-65
2022/01/01 08:00:47;;;;;;;5.17;3.80;;;;;;;10.55;77.24;97789.31;5114988;28;20416;-64
2022/01/01 08:03:12;;;;;;;4.50;3.90;;;;;;;10.79;76.58;97780.84;5095917;28;20506;-65
2022/01/01 08:05:38;;;;;;;5.57;4.40;;;;;;;10.69;76.72;97775.22;5114070;28;20860;-66
2022/01/01 08:08:04;;;;;;;6.47;4.23;;;;;;;10.18;78.76;97771.56;5115142;28;20180;-64
2022/01/01 08:10:30;;;;;;;6.00;4.10;;;;;;;9.87;80.65;97777.28;5115930;28;20244;-64
2022/01/01 08:12:56;;;;;;;5.50;4.47;;;;;;;9.84;80.35;97785.53;5116106;28;20180;-64
2022/01/01 08:15:21;;;;;;;5.17;4.07;;;;;;;9.79;79.71;97777.47;5115993;28;20226;-64
2022/01/01 08:17:47;;;;;;;5.07;4.17;;;;;;;9.92;78.89;97782.72;5116022;28;20610;-64
2022/01/01 08:20:12;;;;;;;5.83;4.40;;;;;;;9.66;79.60;97786.09;5116059;28;20180;-64
2022/01/01 08:22:38;;;;;;;4.47;3.87;;;;;;;9.66;79.76;97780.03;5115609;28;20226;-65
2022/01/01 08:25:04;;;;;;;4.97;4.00;;;;;;;9.65;79.62;97773.19;5115586;28;20186;-65
2022/01/01 08:27:30;;;;;;;5.80;3.50;;;;;;;9.64;79.30;97777.59;5115860;28;20486;-65
2022/01/01 08:29:56;;;;;;;4.57;4.10;;;;;;;9.53;79.62;97770.31;5115616;28;20180;-64
2022/01/01 08:32:21;;;;;;;4.33;3.50;;;;;;;9.66;78.46;97769.56;5115796;28;20648;-64
2022/01/01 08:34:46;;;;;;;5.73;4.00;;;;;;;9.54;79.54;97775.38;5114652;28;20188;-64
2022/01/01 08:37:12;;;;;;;4.20;3.80;;;;;;;9.48;79.41;97770.09;5114338;28;20210;-64
2022/01/01 08:39:38;;;;;;;5.20;4.10;;;;;;;9.47;79.80;97776.34;5096407;28;20224;-64
2022/01/01 08:42:05;;;;;;;4.97;4.00;;;;;;;9.56;79.38;97781.22;5115077;28;20183;-64
2022/01/01 08:44:31;;;;;;;4.00;3.60;;;;;;;9.71;78.60;97777.63;5115065;28;20279;-64
2022/01/01 08:46:57;;;;;;;4.60;3.97;;;;;;;9.60;79.10;97787.66;5115900;28;20263;-64
2022/01/01 08:49:22;;;;;;;6.23;4.40;;;;;;;9.69;78.78;97792.75;5115058;28;20611;-64
2022/01/01 08:51:48;;;;;;;4.83;3.57;;;;;;;9.83;78.27;97795.22;5115140;28;20286;-64
2022/01/01 08:54:14;;;;;;;4.13;3.73;;;;;;;9.95;77.38;97798.06;5115140;28;20242;-64
2022/01/01 08:56:40;;;;;;;5.27;3.17;;;;;;;9.86;77.12;97804.50;5114429;28;20249;-63
2022/01/01 08:59:06;;;;;;;3.87;3.47;;;;;;;10.06;78.26;97797.50;5115196;28;20188;-63
2022/01/01 09:01:31;;;;;;;3.80;2.90;;;;;;;10.17;75.78;97794.31;5113981;27;20237;-63
2022/01/01 09:03:58;;;;;;;3.93;2.80;;;;;;;10.32;75.65;97799.38;5114902;28;20188;-63
2022/01/01 09:06:23;;;;;;;3.40;2.80;;;;;;;10.25;74.74;97798.56;5095520;27;20537;-63
2022/01/01 09:08:49;;;;;;;4.83;2.83;;;;;;;10.43;74.19;97801.41;5115213;28;20188;-63
2022/01/01 09:11:15;;;;;;;4.87;2.70;;;;;;;10.47;73.25;97814.94;5115077;27;20307;-64
2022/01/01 09:13:43;;;;;;;2.67;2.40;;;;;;;10.40;73.68;97810.47;5115112;28;20672;-63
2022/01/01 09:16:12;;;;;;;3.20;2.43;;;;;;;10.47;73.05;97807.06;5115555;28;20179;-64
2022/01/01 09:18:39;;;;;;;2.53;2.33;;;;;;;10.52;72.92;97810.69;5113880;28;20291;-64
2022/01/01 09:21:05;;;;;;;2.80;2.50;;;;;;;10.69;72.23;97809.31;5113365;28;20753;-64
2022/01/01 09:23:31;;;;;;;2.53;2.10;;;;;;;10.77;72.12;97814.31;5094934;28;20411;-65
2022/01/01 09:25:56;;;;;;;2.30;2.10;;;;;;;10.79;71.71;97822.00;5112796;28;20859;-64
2022/01/01 09:28:22;;;;;;;2.77;2.57;;;;;;;11.02;71.79;97813.72;5113417;28;20445;-64
2022/01/01 09:30:47;;;;;;;2.70;2.50;;;;;;;11.30;71.33;97814.28;5112689;28;20377;-64
2022/01/01 09:33:13;;;;;;;2.40;2.20;;;;;;;11.49;71.46;97815.22;5113194;28;20507;-64
2022/01/01 09:35:39;;;;;;;3.85;2.42;;;;;;;11.57;71.65;97818.44;5094612;28;20399;-65
2022/01/01 09:38:05;;;;;;;2.50;2.30;;;;;;;11.73;71.21;97816.34;5112938;28;20408;-65
2022/01/01 09:40:32;;;;;;;3.10;2.13;;;;;;;11.59;71.91;97826.09;5113248;28;20387;-65
2022/01/01 09:42:58;;;;;;;2.42;2.20;;;;;;;11.73;71.53;97829.47;5112563;28;20741;-65
2022/01/01 09:45:24;;;;;;;3.60;2.17;;;;;;;11.87;71.79;97837.13;5112401;28;20395;-64
2022/01/01 09:47:50;;;;;;;2.30;2.10;;;;;;;11.91;71.90;97833.09;5113170;28;20388;-64
2022/01/01 09:50:15;;;;;;;2.58;2.38;;;;;;;11.92;71.86;97836.53;5112836;28;20795;-64
2022/01/01 09:52:41;;;;;;;2.17;1.98;;;;;;;11.95;72.09;97829.03;5112922;28;20384;-65
2022/01/01 09:55:07;;;;;;;2.43;2.23;;;;;;;11.94;72.42;97827.41;5111856;28;20421;-68
2022/01/01 09:57:32;;;;;;;2.90;2.22;;;;;;;11.97;72.93;97826.19;5112909;28;20388;-65
2022/01/01 09:59:58;;;;;;;2.73;2.30;;;;;;;12.17;71.94;97826.88;5089660;28;20388;-66
2022/01/01 10:02:23;;;;;;;2.38;2.17;;;;;;;11.99;72.66;97826.75;5112051;28;20398;-66
2022/01/01 10:04:51;;;;;;;3.47;2.10;;;;;;;12.30;72.30;97832.06;5112115;28;20420;-65
2022/01/01 10:07:17;;;;;;;4.07;2.15;;;;;;;12.28;72.56;97822.78;5112273;28;20407;-66
2022/01/01 10:09:43;;;;;;;2.03;1.83;;;;;;;12.48;72.03;97816.38;5112249;28;20483;-66
2022/01/01 10:12:14;;;;;;;2.07;1.90;;;;;;;12.55;72.44;97818.94;5112570;28;20471;-65
2022/01/01 10:14:41;;;;;;;2.10;1.88;;;;;;;12.56;72.10;97817.94;5094575;28;20400;-65
2022/01/01 10:17:15;;;;;;;3.20;2.20;;;;;;;12.36;72.63;97819.91;5111651;28;20475;-65
2022/01/01 10:19:41;;;;;;;3.13;2.10;;;;;;;12.35;72.54;97819.09;5112354;28;20798;-66
2022/01/01 10:22:07;;;;;;;1.63;1.52;;;;;;;12.44;72.82;97809.94;5112590;28;20384;-66
2022/01/01 10:27:42;;;;;;;1.63;1.52;;;;;;;12.58;72.43;97812.47;5112256;28;20486;-66
2022/01/01 10:30:03;;;;;;;1.77;1.67;;;;;;;12.82;71.83;97812.47;5116535;27;20475;-67
2022/01/01 10:32:28;;;;;;;2.17;1.97;;;;;;;12.91;70.78;97805.13;5093759;28;20892;-67
2022/01/01 10:34:54;;;;;;;2.90;2.40;;;;;;;12.79;72.13;97797.13;5110828;28;20504;-67
2022/01/01 10:37:26;;;;;;;4.07;3.10;;;;;;;12.90;70.48;97792.97;5111795;28;20384;-67
2022/01/01 10:39:54;;;;;;;4.15;3.28;;;;;;;12.99;70.53;97796.13;5111403;28;20479;-68
2022/01/01 10:42:20;;;;;;;3.40;3.10;;;;;;;12.79;70.34;97799.75;5093805;28;20403;-67
2022/01/01 10:44:50;;;;;;;3.90;3.10;;;;;;;12.66;71.26;97796.41;5111163;28;20457;-67
2022/01/01 10:47:20;;;;;;;3.90;3.30;;;;;;;12.87;70.83;97793.41;5093577;28;20949;-67
2022/01/01 10:52:13;;;;;;;3.95;3.55;;;;;;;12.72;71.74;97783.22;5112225;28;20391;-66
2022/01/01 10:54:46;;;;;;;5.55;4.30;;;;;;;13.02;70.60;97790.44;5111986;28;20407;-66
2022/01/01 10:57:12;;;;;;;7.18;5.80;;;;;;;12.65;71.99;97787.72;5110956;28;20384;-66
2022/01/01 10:59:38;;;;;;;7.43;5.57;;;;;;;12.50;71.88;97787.22;5113986;28;20820;-66
2022/01/01 11:02:07;;;;;;;5.93;5.10;;;;;;;12.38;72.37;97784.47;5118326;28;20391;-66
2022/01/01 11:04:36;;;;;;;6.05;5.15;;;;;;;12.47;71.75;97779.78;5118048;28;20384;-65
2022/01/01 11:07:02;;;;;;;6.75;5.38;;;;;;;12.49;71.70;97777.72;5119173;28;20848;-65
2022/01/01 11:09:30;;;;;;;6.75;5.20;;;;;;;12.37;72.05;97784.72;5118573;28;20441;-66
2022/01/01 11:12:03;;;;;;;6.50;5.40;;;;;;;12.42;71.55;97769.09;5118199;28;20798;-66
2022/01/01 11:14:31;;;;;;;6.65;5.10;;;;;;;12.43;72.12;97763.59;5118504;28;20407;-66
2022/01/01 11:17:01;;;;;;;9.35;7.72;;;;;;;12.66;85.58;97763.03;5118445;28;20384;-70
2022/01/01 11:19:26;;;;;;;8.93;7.25;;;;;;;13.67;84.72;97760.78;5099001;28;20488;-70
2022/01/01 11:21:53;;;;;;;6.82;5.82;;;;;;;14.39;69.36;97761.63;5118441;28;20867;-67
2022/01/01 11:24:21;;;;;;;6.10;5.50;;;;;;;13.85;67.31;97765.22;5094569;27;21723;-66
2022/01/01 11:26:48;;;;;;;7.07;5.88;;;;;;;13.12;68.85;97762.63;5117404;27;20407;-66
2022/01/01 11:29:14;;;;;;;6.57;5.63;;;;;;;12.80;69.72;97756.63;5118711;28;20403;-66
2022/01/01 11:31:41;;;;;;;8.00;5.40;;;;;;;12.88;69.96;97750.28;5118055;28;20903;-66
2022/01/01 11:34:07;;;;;;;7.25;6.00;;;;;;;12.75;70.42;97745.16;5117777;28;20726;-66
2022/01/01 11:36:34;;;;;;;6.53;5.57;;;;;;;12.61;70.99;97741.81;5118176;28;20899;-66
2022/01/01 11:39:05;;;;;;;8.07;6.20;;;;;;;12.82;70.25;97733.53;5099593;28;20534;-66
2022/01/01 11:41:42;;;;;;;7.75;6.55;;;;;;;12.77;71.02;97736.00;5117983;28;20415;-66